Nevzat Kalkavan — TCMO2 — position and weather

sailwx.info

Track history (hours):
 
Tides and Currents Weather Stations Pressure Air Temp Water Temp Dewpoint Dewpoint Depression Visibility Wind Speed Wind Dir Waves Ship Positions

Nevzat Kalkavan

Last reported at 2018-Feb-16 09:43 UTC. Time now 2018-Feb-18 22:24 UTC.
Position N 36°41' W 000°51'.

Length 183 m; draft 10.8 m.

Type: Ship (hazmat cat A). MMSI: 271042759.

Date/timePositionNaut miles runAvg speedWind from/ knotsBaromVisibWave heightAir tempDewpointWater temp
2018-Feb-16 09:43N 36°41' W 000°51'314.4
2018-Feb-16 09:30N 36°42' W 000°47'714.4
2018-Feb-16 08:59N 36°43' W 000°38'1014.5
2018-Feb-16 08:19N 36°45' W 000°26'514.7
2018-Feb-16 08:00N 36°46' W 000°20'714.6
2018-Feb-16 07:30N 36°47' W 000°11'714.9
2018-Feb-16 07:00N 36°48' W 000°02'815.4
2018-Feb-16 06:30N 36°50' E 000°07'815.8
2018-Feb-16 06:00N 36°51' E 000°17'815.9
2018-Feb-16 05:30N 36°53' E 000°26'816.0
2018-Feb-16 05:00N 36°54' E 000°36'815.9
2018-Feb-16 04:30N 36°56' E 000°46'815.7
2018-Feb-16 04:00N 36°58' E 000°56'915.6
2018-Feb-16 03:25N 36°60' E 001°07'615.1
2018-Feb-16 03:00N 37°01' E 001°15'714.5
2018-Feb-16 02:30N 37°03' E 001°23'814.4
2018-Feb-16 01:58N 37°04' E 001°33'715.2
2018-Feb-16 01:30N 37°06' E 001°42'9515.1
2018-Feb-15 19:11N 37°26' E 003°39'315.2
2018-Feb-15 18:59N 37°26' E 003°42'48513.8
2018-Feb-14 07:45N 36°36' E 013°46'513.7
2018-Feb-14 07:24N 36°34' E 013°52'613.5
2018-Feb-14 06:58N 36°33' E 013°59'613.3
2018-Feb-14 06:29N 36°32' E 014°07'1013.1
2018-Feb-14 05:45N 36°30' E 014°18'312.9
2018-Feb-14 05:30N 36°29' E 014°22'612.8
2018-Feb-14 05:00N 36°28' E 014°30'912.8
2018-Feb-14 04:18N 36°25' E 014°41'47512.5
2018-Feb-12 14:23N 37°39' E 024°29'269 6.9
2018-Feb-10 23:25N 40°26' E 029°01'3 8.4
2018-Feb-10 23:00N 40°26' E 029°05'1 0.1
2018-Feb-10 15:06N 40°25' E 029°05'0 2.0
2018-Feb-10 15:00N 40°25' E 029°05'  
2018-Feb-08 01:29N 40°43' E 029°12'0 0.5
2018-Feb-08 00:58N 40°43' E 029°12'0 0.8
2018-Feb-08 00:29N 40°43' E 029°12'0 0.6
2018-Feb-07 23:59N 40°43' E 029°12'0 0.3
2018-Feb-07 23:29N 40°43' E 029°13'1 1.8
2018-Feb-07 22:59N 40°42' E 029°11'815.2
2018-Feb-07 22:29N 40°41' E 029°01'714.7
2018-Feb-07 22:00N 40°40' E 028°52'286 8.2
2018-Feb-06 11:02N 36°03' E 030°24'015.9
2018-Feb-06 11:00N 36°03' E 030°24'1415.9
2018-Feb-06 10:06N 36°02' E 030°42'316.1
2018-Feb-06 09:55N 36°02' E 030°46'  
Track history (hours):
 
Tides and Currents Weather Stations Pressure Air Temp Water Temp Dewpoint Dewpoint Depression Visibility Wind Speed Wind Dir Waves Ship Positions

Nevzat Kalkavan

Last reported at 2018-Feb-16 09:43 UTC. Time now 2018-Feb-18 22:24 UTC.
Position N 36°41' W 000°51'.

Length 183 m; draft 10.8 m.

Type: Ship (hazmat cat A). MMSI: 271042759.

Date/timePositionNaut miles runAvg speedWind from/ knotsBaromVisibWave heightAir tempDewpointWater temp
2018-Feb-16 09:43N 36°41' W 000°51'314.4
2018-Feb-16 09:30N 36°42' W 000°47'714.4
2018-Feb-16 08:59N 36°43' W 000°38'1014.5
2018-Feb-16 08:19N 36°45' W 000°26'514.7
2018-Feb-16 08:00N 36°46' W 000°20'714.6
2018-Feb-16 07:30N 36°47' W 000°11'714.9
2018-Feb-16 07:00N 36°48' W 000°02'815.4
2018-Feb-16 06:30N 36°50' E 000°07'815.8
2018-Feb-16 06:00N 36°51' E 000°17'815.9
2018-Feb-16 05:30N 36°53' E 000°26'816.0
2018-Feb-16 05:00N 36°54' E 000°36'815.9
2018-Feb-16 04:30N 36°56' E 000°46'815.7
2018-Feb-16 04:00N 36°58' E 000°56'915.6
2018-Feb-16 03:25N 36°60' E 001°07'615.1
2018-Feb-16 03:00N 37°01' E 001°15'714.5
2018-Feb-16 02:30N 37°03' E 001°23'814.4
2018-Feb-16 01:58N 37°04' E 001°33'715.2
2018-Feb-16 01:30N 37°06' E 001°42'9515.1
2018-Feb-15 19:11N 37°26' E 003°39'315.2
2018-Feb-15 18:59N 37°26' E 003°42'48513.8
2018-Feb-14 07:45N 36°36' E 013°46'513.7
2018-Feb-14 07:24N 36°34' E 013°52'613.5
2018-Feb-14 06:58N 36°33' E 013°59'613.3
2018-Feb-14 06:29N 36°32' E 014°07'1013.1
2018-Feb-14 05:45N 36°30' E 014°18'312.9
2018-Feb-14 05:30N 36°29' E 014°22'612.8
2018-Feb-14 05:00N 36°28' E 014°30'912.8
2018-Feb-14 04:18N 36°25' E 014°41'47512.5
2018-Feb-12 14:23N 37°39' E 024°29'269 6.9
2018-Feb-10 23:25N 40°26' E 029°01'3 8.4
2018-Feb-10 23:00N 40°26' E 029°05'1 0.1
2018-Feb-10 15:06N 40°25' E 029°05'0 2.0
2018-Feb-10 15:00N 40°25' E 029°05'  
2018-Feb-08 01:29N 40°43' E 029°12'0 0.5
2018-Feb-08 00:58N 40°43' E 029°12'0 0.8
2018-Feb-08 00:29N 40°43' E 029°12'0 0.6
2018-Feb-07 23:59N 40°43' E 029°12'0 0.3
2018-Feb-07 23:29N 40°43' E 029°13'1 1.8
2018-Feb-07 22:59N 40°42' E 029°11'815.2
2018-Feb-07 22:29N 40°41' E 029°01'714.7
2018-Feb-07 22:00N 40°40' E 028°52'286 8.2
2018-Feb-06 11:02N 36°03' E 030°24'015.9
2018-Feb-06 11:00N 36°03' E 030°24'1415.9
2018-Feb-06 10:06N 36°02' E 030°42'316.1
2018-Feb-06 09:55N 36°02' E 030°46'  

Dump ship's entire track history